Columbus, GA

9:46 PM EST on December 21, 2014 (GMT -0500)
RoseParadiseFarm Hwy 36 | Change Station
CLOSE
Current Station
Personal Weather Station
Location: Waverly Hall, GA
Elevation: 804 ft
Nearby Weather Stations

Elev 804 ft 32.70 °N, 84.70 °W | Updated 2 seconds ago

Overcast
Overcast
48.5 °F
Feels Like 48 °F
N
1.0
Wind Variable Wind from East
Gusts 4.0 mph

Today
High -- | Low -- °F
--% Chance of Precip.
Yesterday
High -- | Low -- °F
Precip. -- in
7:36 AM 5:37 PM
New Moon, 0% visible
Pressure 30.07 in
Visibility 7.0 miles
Clouds Overcast 800 ft
Windchill 48 °F
Dew Point 47 °F
Humidity 96%
Rainfall 0.00 in
Snow Depth Not available.
UV 0 out of 12
Pollen 1.90 out of 12
Air Quality Not available.
Flu Activity Not available.
METAR KCSG 220151Z AUTO 11008KT 7SM OVC008 10/09 A3007 RMK AO2 SLP182 T01000089

More Conditions Fewer Conditions

Pressure 30.07 in
Visibility 7.0 miles
Clouds Overcast 800 ft
Windchill 48 °F
Dew Point 47 °F
Humidity 96%
Rainfall 0.00 in
Snow Depth Not available.
UV 0 out of 12
Pollen 1.90 out of 12
Air Quality Not available.
Flu Activity Not available.
METAR KCSG 220151Z AUTO 11008KT 7SM OVC008 10/09 A3007 RMK AO2 SLP182 T01000089

More Conditions Fewer Conditions

10-Day Weather Forecast

Almanac

Astronomy

Dec. 21, 2014 Rise Set
Actual Time
Civil Twilight
Nautical Twilight
Astronomical Twilight
Moon
Length of Visible Light
Length of Day
Tomorrow will be .
, % of the Moon is Illuminated

Today's Extremes

State Highs State Lows

Community

WunderPhotos

Upload Photos

1,779,528 photos uploaded!

WunderBlogs® & News

Nearby

Air Quality

  Air Quality AQ Index Pollutant
Not available.

Snow Depth

Station Depth Elevation

Earthquake Activity

City Distance Mag. Time & Date
Minimum magnitude displayed is 2.5.

Coastal Water Temperatures

Place Temperature

Nearby Weather Stations